Time;durP1;ratioP1;P1;durP2;ratioP2;P2;SDS_P1;SDS_P2;PMS_P1;PMS_P2;Temp;Humidity;BMP_temperature;BMP_pressure;BME280_temperature;BME280_humidity;BME280_pressure;Samples;Min_cycle;Max_cycle;Signal;HPM_P1;HPM_P2
2022/01/17 00:01:18;;;;;;;13.27;7.10;;;6.20;99.90;;;;;;5076458;28;20420;-46
2022/01/17 00:03:45;;;;;;;16.77;7.95;;;6.10;99.90;;;;;;5058933;28;20020;-49
2022/01/17 00:06:11;;;;;;;16.55;7.93;;;6.10;99.90;;;;;;5058556;28;20403;-47
2022/01/17 00:08:41;;;;;;;14.48;8.20;;;6.00;99.90;;;;;;5058748;28;20027;-48
2022/01/17 00:11:08;;;;;;;12.63;7.90;;;6.00;99.90;;;;;;5076476;28;20353;-48
2022/01/17 00:13:33;;;;;;;16.88;8.73;;;6.10;99.90;;;;;;5058295;28;20027;-47
2022/01/17 00:16:12;;;;;;;16.05;8.10;;;6.20;99.90;;;;;;5058687;28;20468;-47
2022/01/17 00:21:05;;;;;;;16.33;7.40;;;6.10;99.90;;;;;;5076343;28;20071;-47
2022/01/17 00:23:32;;;;;;;16.30;8.05;;;6.00;99.90;;;;;;5058102;28;20025;-48
2022/01/17 00:25:58;;;;;;;17.63;9.70;;;6.10;99.90;;;;;;5057954;28;20028;-48
2022/01/17 00:28:23;;;;;;;15.98;7.55;;;6.00;99.90;;;;;;5058317;28;20021;-47
2022/01/17 00:30:49;;;;;;;13.68;7.43;;;6.00;99.90;;;;;;5058862;28;20461;-47
2022/01/17 00:33:15;;;;;;;16.95;8.15;;;6.00;99.90;;;;;;5075863;28;20100;-48
2022/01/17 00:35:40;;;;;;;15.85;7.85;;;6.10;99.90;;;;;;5075821;28;20498;-48
2022/01/17 00:38:08;;;;;;;13.65;7.88;;;6.10;99.90;;;;;;5075856;28;20025;-52
2022/01/17 00:40:34;;;;;;;15.23;7.97;;;6.10;99.90;;;;;;5058128;28;20028;-52
2022/01/17 00:42:59;;;;;;;13.30;6.50;;;6.10;99.90;;;;;;5058113;28;20025;-49
2022/01/17 00:45:27;;;;;;;14.40;7.25;;;6.10;99.90;;;;;;5057625;28;20021;-48
2022/01/17 00:47:57;;;;;;;15.68;7.13;;;6.20;99.90;;;;;;5057752;28;20483;-48
2022/01/17 00:50:28;;;;;;;16.63;7.35;;;6.20;99.90;;;;;;5057552;28;20039;-47
2022/01/17 00:52:55;;;;;;;14.73;7.60;;;6.10;99.90;;;;;;5075668;28;20016;-49
2022/01/17 00:55:21;;;;;;;14.95;6.85;;;6.10;99.90;;;;;;5075785;28;20020;-48
2022/01/17 00:57:46;;;;;;;12.57;7.28;;;6.20;99.90;;;;;;5057576;28;20031;-47
2022/01/17 01:00:13;;;;;;;13.02;6.95;;;6.10;99.90;;;;;;5057166;28;20028;-47
2022/01/17 01:02:39;;;;;;;12.07;6.38;;;6.20;99.90;;;;;;5075557;28;20032;-48
2022/01/17 01:05:06;;;;;;;13.23;6.50;;;6.30;99.90;;;;;;5057351;28;20066;-47
2022/01/17 01:07:32;;;;;;;13.10;6.95;;;6.30;99.90;;;;;;5057657;28;20021;-48
2022/01/17 01:10:08;;;;;;;12.80;6.88;;;6.20;99.90;;;;;;5075413;28;20016;-47
2022/01/17 01:12:34;;;;;;;13.13;6.43;;;6.30;99.90;;;;;;5057244;28;20089;-48
2022/01/17 01:15:00;;;;;;;15.98;7.25;;;6.20;99.90;;;;;;5075390;28;20036;-47
2022/01/17 01:17:47;;;;;;;15.63;6.57;;;6.30;99.90;;;;;;5057128;28;20032;-49
2022/01/17 01:28:18;;;;;;;14.07;6.80;;;6.10;99.90;;;;;;5075428;28;20044;-52
2022/01/17 01:30:48;;;;;;;14.57;7.50;;;6.10;99.90;;;;;;5056832;28;20032;-50
2022/01/17 01:33:23;;;;;;;15.95;7.78;;;6.10;99.90;;;;;;5056846;28;20020;-48
2022/01/17 01:35:56;;;;;;;13.02;7.13;;;6.10;99.90;;;;;;5057777;28;20021;-54
2022/01/17 01:38:22;;;;;;;13.25;6.57;;;6.10;99.90;;;;;;5057997;28;20025;-47
2022/01/17 01:40:48;;;;;;;16.38;8.13;;;6.10;99.90;;;;;;5074918;28;20021;-47
2022/01/17 01:43:13;;;;;;;14.95;7.10;;;6.00;99.90;;;;;;5056667;28;20028;-47
2022/01/17 01:45:39;;;;;;;14.90;7.30;;;6.00;99.90;;;;;;5057141;28;20438;-47
2022/01/17 01:48:08;;;;;;;13.52;7.38;;;6.00;99.90;;;;;;5056650;28;20055;-50
2022/01/17 01:50:33;;;;;;;12.77;6.55;;;6.00;99.90;;;;;;5056643;28;20044;-47
2022/01/17 01:52:59;;;;;;;15.15;7.25;;;6.00;99.90;;;;;;5056468;28;20021;-49
2022/01/17 01:55:25;;;;;;;15.95;7.15;;;6.00;99.90;;;;;;5074457;28;20536;-49
2022/01/17 01:57:51;;;;;;;18.55;7.38;;;6.00;99.90;;;;;;5056536;28;20029;-50
2022/01/17 02:00:17;;;;;;;11.27;6.22;;;6.00;99.90;;;;;;5056887;28;20029;-49
2022/01/17 02:02:42;;;;;;;13.40;6.43;;;6.00;99.90;;;;;;5056876;28;20093;-48
2022/01/17 02:05:08;;;;;;;11.93;6.65;;;6.00;99.90;;;;;;5074322;28;20060;-49
2022/01/17 02:07:35;;;;;;;12.43;6.30;;;6.00;99.90;;;;;;5074094;28;20089;-47
2022/01/17 02:10:01;;;;;;;11.93;5.68;;;6.00;99.90;;;;;;5056081;28;20028;-48
2022/01/17 02:12:29;;;;;;;12.07;6.22;;;6.00;99.90;;;;;;5055926;28;20468;-49
2022/01/17 02:14:55;;;;;;;13.40;6.53;;;6.00;99.90;;;;;;5056033;28;20090;-47
2022/01/17 02:17:23;;;;;;;12.85;5.78;;;6.00;99.90;;;;;;5055968;28;20032;-51
2022/01/17 02:20:06;;;;;;;14.20;6.63;;;6.00;99.90;;;;;;5073778;28;20092;-48
2022/01/17 02:22:33;;;;;;;17.33;6.57;;;6.00;99.90;;;;;;5055879;28;20032;-48
2022/01/17 02:24:58;;;;;;;12.38;5.65;;;6.00;99.90;;;;;;5074258;28;20052;-47
2022/01/17 02:27:24;;;;;;;16.50;7.05;;;6.00;99.90;;;;;;5073775;28;20049;-48
2022/01/17 02:29:50;;;;;;;10.82;5.57;;;6.10;99.90;;;;;;5056476;28;20065;-47
2022/01/17 02:32:16;;;;;;;11.65;5.30;;;6.10;99.90;;;;;;5055762;28;20051;-47
2022/01/17 02:34:43;;;;;;;14.07;5.68;;;6.00;99.90;;;;;;5073696;28;20024;-47
2022/01/17 02:37:10;;;;;;;12.95;5.78;;;6.00;99.90;;;;;;5055902;28;20545;-49
2022/01/17 02:39:37;;;;;;;10.00;5.43;;;6.10;99.90;;;;;;5055712;28;20024;-47
2022/01/17 02:42:04;;;;;;;9.77;5.38;;;6.10;99.90;;;;;;5055889;28;20063;-49
2022/01/17 02:44:30;;;;;;;8.95;4.85;;;6.00;99.90;;;;;;5055777;28;20021;-47
2022/01/17 02:46:56;;;;;;;11.65;5.22;;;6.00;99.90;;;;;;5055873;28;20115;-49
2022/01/17 02:49:21;;;;;;;13.23;6.05;;;6.00;99.90;;;;;;5073381;28;20031;-48
2022/01/17 02:51:48;;;;;;;9.35;5.05;;;6.00;99.90;;;;;;5055372;28;20075;-50
2022/01/17 02:54:15;;;;;;;10.93;5.90;;;5.90;99.90;;;;;;5055443;28;20111;-47
2022/01/17 02:56:41;;;;;;;10.45;5.40;;;6.00;99.90;;;;;;5055730;28;20051;-54
2022/01/17 02:59:07;;;;;;;10.00;5.20;;;6.00;99.90;;;;;;5055352;28;20035;-48
2022/01/17 03:01:32;;;;;;;9.75;4.90;;;6.00;99.90;;;;;;5073236;28;20104;-47
2022/01/17 03:03:59;;;;;;;9.10;4.47;;;6.00;99.90;;;;;;5055271;28;20032;-49
2022/01/17 03:06:26;;;;;;;12.35;5.82;;;6.00;99.90;;;;;;5073174;28;20013;-51
2022/01/17 03:08:52;;;;;;;7.40;4.90;;;5.90;99.90;;;;;;5073237;28;20028;-50
2022/01/17 03:11:24;;;;;;;7.07;3.78;;;5.90;99.90;;;;;;5073086;28;20021;-48
2022/01/17 03:13:51;;;;;;;10.98;5.20;;;6.00;99.90;;;;;;5073148;28;20016;-49
2022/01/17 03:16:18;;;;;;;13.55;6.38;;;6.00;99.90;;;;;;5056065;28;20078;-48
2022/01/17 03:18:52;;;;;;;11.15;5.45;;;6.00;99.90;;;;;;5073130;28;20021;-53
2022/01/17 03:21:20;;;;;;;8.93;5.13;;;6.00;99.90;;;;;;5073075;28;20020;-51
2022/01/17 03:23:49;;;;;;;8.80;4.85;;;6.10;99.90;;;;;;5056050;28;20078;-50
2022/01/17 03:26:15;;;;;;;9.80;4.78;;;6.00;99.90;;;;;;5060018;28;20074;-48
2022/01/17 03:28:41;;;;;;;8.43;4.55;;;6.10;99.90;;;;;;5059778;28;20028;-50
2022/01/17 03:31:07;;;;;;;11.88;5.70;;;6.00;99.90;;;;;;5059153;28;20017;-50
2022/01/17 03:33:33;;;;;;;8.65;5.15;;;6.00;99.90;;;;;;5077150;28;20028;-53
2022/01/17 03:35:59;;;;;;;12.43;4.90;;;5.90;99.90;;;;;;5059669;28;20028;-47
2022/01/17 03:38:28;;;;;;;8.27;4.55;;;5.90;99.90;;;;;;5059077;28;20393;-47
2022/01/17 03:40:54;;;;;;;8.18;4.30;;;5.90;99.90;;;;;;5076860;28;20049;-47
2022/01/17 03:43:22;;;;;;;13.00;5.35;;;5.90;99.90;;;;;;5058920;28;20111;-47
2022/01/17 03:45:49;;;;;;;8.45;4.43;;;6.00;99.90;;;;;;5076829;28;20082;-48
2022/01/17 03:48:16;;;;;;;9.90;5.07;;;6.00;99.90;;;;;;5076799;28;20054;-47
2022/01/17 03:50:42;;;;;;;13.60;5.53;;;6.00;99.90;;;;;;5076526;28;20029;-47
2022/01/17 03:53:08;;;;;;;9.77;5.30;;;6.00;99.90;;;;;;5059332;28;20017;-48
2022/01/17 03:55:34;;;;;;;9.90;4.68;;;6.00;99.90;;;;;;5076975;28;20099;-47
2022/01/17 03:58:01;;;;;;;8.95;4.68;;;6.00;99.90;;;;;;5076605;28;20155;-47
2022/01/17 04:00:31;;;;;;;9.07;4.90;;;6.00;99.90;;;;;;5076847;28;20024;-47
2022/01/17 04:02:57;;;;;;;11.00;5.05;;;5.90;99.90;;;;;;5077152;28;20016;-47
2022/01/17 04:05:23;;;;;;;9.82;5.15;;;6.00;99.90;;;;;;5076621;28;20027;-48
2022/01/17 04:07:49;;;;;;;8.90;4.95;;;6.00;99.90;;;;;;5076514;28;20102;-48
2022/01/17 04:10:16;;;;;;;9.50;5.38;;;6.10;99.90;;;;;;5058565;28;20035;-47
2022/01/17 04:12:42;;;;;;;10.15;5.35;;;6.10;99.90;;;;;;5058681;28;20024;-49
2022/01/17 04:15:09;;;;;;;10.00;5.25;;;6.10;99.90;;;;;;5076263;28;20028;-50
2022/01/17 04:17:35;;;;;;;9.98;5.00;;;6.00;99.90;;;;;;5058364;28;20059;-51
2022/01/17 04:20:08;;;;;;;12.57;6.22;;;6.00;99.90;;;;;;5058921;28;20052;-49
2022/01/17 04:22:38;;;;;;;10.25;5.68;;;6.00;99.90;;;;;;5058216;28;20074;-51
2022/01/17 04:25:06;;;;;;;12.27;5.68;;;6.00;99.90;;;;;;5058153;28;20115;-47
2022/01/17 04:27:31;;;;;;;10.52;5.28;;;5.90;99.90;;;;;;5058069;28;20036;-48
2022/01/17 04:29:58;;;;;;;14.40;6.05;;;6.00;99.90;;;;;;5075894;28;20017;-48
2022/01/17 04:32:23;;;;;;;12.15;5.63;;;5.90;99.90;;;;;;5058073;28;20024;-47
2022/01/17 04:34:49;;;;;;;15.70;6.25;;;5.80;99.90;;;;;;5076153;28;20119;-47
2022/01/17 04:37:15;;;;;;;16.92;6.95;;;5.90;99.90;;;;;;5075846;28;20095;-47
2022/01/17 04:39:41;;;;;;;13.65;6.55;;;5.90;99.90;;;;;;5057728;28;20554;-48
2022/01/17 04:42:12;;;;;;;13.82;5.82;;;5.90;99.90;;;;;;5076370;28;20030;-49
2022/01/17 04:47:24;;;;;;;14.52;6.82;;;5.90;99.90;;;;;;5076304;28;20047;-53
2022/01/17 04:49:50;;;;;;;14.55;6.38;;;5.90;99.90;;;;;;5075677;28;20036;-48
2022/01/17 04:52:15;;;;;;;14.00;6.30;;;6.00;99.90;;;;;;5057712;28;20028;-48
2022/01/17 04:54:43;;;;;;;13.13;6.70;;;6.00;99.90;;;;;;5075625;28;20021;-47
2022/01/17 04:57:11;;;;;;;15.80;6.40;;;6.00;99.90;;;;;;5075519;28;20127;-50
2022/01/17 04:59:39;;;;;;;16.58;7.50;;;6.00;99.90;;;;;;5057476;28;20095;-50
2022/01/17 05:02:05;;;;;;;14.05;7.10;;;6.00;99.90;;;;;;5075368;28;20078;-49
2022/01/17 05:04:31;;;;;;;15.43;7.55;;;6.00;99.90;;;;;;5057323;28;20032;-50
2022/01/17 05:06:57;;;;;;;20.13;7.65;;;6.00;99.90;;;;;;5057375;28;20027;-51
2022/01/17 05:09:22;;;;;;;20.05;6.95;;;6.00;99.90;;;;;;5057597;28;20016;-49
2022/01/17 05:11:48;;;;;;;17.08;7.13;;;6.00;99.90;;;;;;5075175;28;20029;-48
2022/01/17 05:14:14;;;;;;;14.85;7.55;;;5.90;99.90;;;;;;5057214;28;20092;-50
2022/01/17 05:16:46;;;;;;;14.38;6.75;;;6.00;99.90;;;;;;5057193;28;20029;-51
2022/01/17 05:21:56;;;;;;;19.55;7.97;;;6.00;99.90;;;;;;5075688;28;20039;-54
2022/01/17 05:24:21;;;;;;;16.45;8.13;;;5.90;99.90;;;;;;5057040;28;20036;-54
2022/01/17 05:26:47;;;;;;;17.23;7.80;;;5.90;99.90;;;;;;5056976;28;20020;-53
2022/01/17 05:29:13;;;;;;;17.52;7.75;;;5.80;99.90;;;;;;5057032;28;20020;-54
2022/01/17 05:31:39;;;;;;;14.13;7.03;;;5.80;99.90;;;;;;5056992;28;20075;-51
2022/01/17 05:34:04;;;;;;;16.17;7.55;;;5.80;99.90;;;;;;5056879;28;20070;-47
2022/01/17 05:36:30;;;;;;;25.85;9.77;;;5.80;99.90;;;;;;5056857;28;20158;-47
2022/01/17 05:38:56;;;;;;;22.38;10.73;;;5.80;99.90;;;;;;5056804;28;20044;-49
2022/01/17 05:41:22;;;;;;;22.60;9.35;;;5.80;99.90;;;;;;5056953;28;20028;-47
2022/01/17 05:43:47;;;;;;;16.95;8.18;;;5.80;99.90;;;;;;5074595;28;20074;-48
2022/01/17 05:46:13;;;;;;;20.92;8.57;;;5.90;99.90;;;;;;5056421;28;20060;-47
2022/01/17 05:48:39;;;;;;;21.55;8.63;;;5.90;99.90;;;;;;5074204;28;20027;-47
2022/01/17 05:51:05;;;;;;;22.98;9.68;;;5.90;99.90;;;;;;5056704;28;20086;-47
2022/01/17 05:53:31;;;;;;;20.92;9.52;;;5.90;99.90;;;;;;5074378;28;20051;-47
2022/01/17 05:55:57;;;;;;;21.52;9.65;;;6.00;99.90;;;;;;5074369;28;20028;-48
2022/01/17 05:58:23;;;;;;;22.13;8.90;;;6.10;99.90;;;;;;5057033;28;20036;-51
2022/01/17 06:00:49;;;;;;;19.58;8.70;;;6.10;99.90;;;;;;5074162;28;20032;-49
2022/01/17 06:03:15;;;;;;;16.80;8.43;;;6.10;99.90;;;;;;5056308;28;20024;-51
2022/01/17 06:05:41;;;;;;;27.73;10.60;;;6.10;99.90;;;;;;5056456;28;20032;-48
2022/01/17 06:08:07;;;;;;;25.17;12.13;;;6.10;99.90;;;;;;5056200;28;20035;-49
2022/01/17 06:10:33;;;;;;;41.22;18.50;;;6.10;99.90;;;;;;5074243;28;20472;-47
2022/01/17 06:12:59;;;;;;;107.93;57.85;;;6.10;99.90;;;;;;5056109;28;20016;-51
2022/01/17 06:15:25;;;;;;;77.78;38.72;;;6.10;99.90;;;;;;5056149;28;20020;-48
2022/01/17 06:17:50;;;;;;;40.38;20.88;;;6.10;99.90;;;;;;5056159;28;20123;-47
2022/01/17 06:20:16;;;;;;;29.08;14.23;;;6.10;99.90;;;;;;5074105;28;20029;-47
2022/01/17 06:22:42;;;;;;;30.60;15.93;;;6.10;99.90;;;;;;5073827;28;20035;-48
2022/01/17 06:25:08;;;;;;;26.70;14.82;;;6.10;99.90;;;;;;5055882;28;20024;-48
2022/01/17 06:27:33;;;;;;;22.48;10.63;;;6.10;99.90;;;;;;5055877;28;20115;-48
2022/01/17 06:29:59;;;;;;;52.88;22.95;;;6.20;99.90;;;;;;5073692;28;20021;-50
2022/01/17 06:32:26;;;;;;;126.65;48.88;;;6.20;99.90;;;;;;5073672;28;20091;-50
2022/01/17 06:34:53;;;;;;;123.90;47.83;;;6.20;99.90;;;;;;5073951;28;20020;-48
2022/01/17 06:37:18;;;;;;;115.30;39.75;;;6.20;99.90;;;;;;5055725;28;20093;-48
2022/01/17 06:39:44;;;;;;;135.65;48.25;;;6.30;99.90;;;;;;5055594;28;20476;-50
2022/01/17 06:42:10;;;;;;;195.10;71.97;;;6.30;99.90;;;;;;5073862;28;20078;-48
2022/01/17 06:44:35;;;;;;;171.40;56.70;;;6.30;99.90;;;;;;5073420;28;20027;-47
2022/01/17 06:47:01;;;;;;;37.20;13.60;;;6.30;99.90;;;;;;5055504;28;20021;-49
2022/01/17 06:49:27;;;;;;;27.23;11.73;;;6.40;99.90;;;;;;5074089;28;20025;-48
2022/01/17 06:51:52;;;;;;;26.70;11.57;;;6.40;99.90;;;;;;5055601;28;20036;-47
2022/01/17 06:54:18;;;;;;;24.75;10.40;;;6.40;99.90;;;;;;5073699;28;20093;-52
2022/01/17 06:56:44;;;;;;;21.33;10.02;;;6.30;99.90;;;;;;5056366;28;20032;-48
2022/01/17 06:59:13;;;;;;;25.40;11.70;;;6.40;99.90;;;;;;5055043;28;20178;-47
2022/01/17 07:01:40;;;;;;;24.65;10.93;;;6.30;99.90;;;;;;5073942;28;20025;-49
2022/01/17 07:04:07;;;;;;;26.38;10.85;;;6.30;99.90;;;;;;5056136;28;20020;-52
2022/01/17 07:06:33;;;;;;;24.27;10.75;;;6.40;99.90;;;;;;5073176;28;20035;-47
2022/01/17 07:08:58;;;;;;;21.10;9.73;;;6.40;99.90;;;;;;5055751;28;20017;-51
2022/01/17 07:11:26;;;;;;;26.98;10.45;;;6.40;99.90;;;;;;5055643;28;20074;-52
2022/01/17 07:13:52;;;;;;;22.17;10.13;;;6.40;99.90;;;;;;5055435;28;20024;-51
2022/01/17 07:16:19;;;;;;;21.08;9.48;;;6.50;99.90;;;;;;5055705;28;20021;-48
2022/01/17 07:18:44;;;;;;;21.40;8.43;;;6.50;99.90;;;;;;5073221;28;20032;-52
2022/01/17 07:21:10;;;;;;;19.70;8.57;;;6.40;99.90;;;;;;5055352;28;20025;-49
2022/01/17 07:23:36;;;;;;;23.27;9.30;;;6.40;99.90;;;;;;5073127;28;20047;-53
2022/01/17 07:26:02;;;;;;;20.77;8.10;;;6.40;99.90;;;;;;5055012;28;20031;-51
2022/01/17 07:28:28;;;;;;;20.23;8.25;;;6.40;99.90;;;;;;5073491;28;20059;-48
2022/01/17 07:30:54;;;;;;;22.90;8.30;;;6.40;99.90;;;;;;5055739;28;20021;-48
2022/01/17 07:33:21;;;;;;;20.60;9.02;;;6.40;99.90;;;;;;5055311;28;20032;-48
2022/01/17 07:35:48;;;;;;;19.80;9.43;;;6.40;99.90;;;;;;5055074;28;20113;-49
2022/01/17 07:38:15;;;;;;;19.27;8.18;;;6.50;99.90;;;;;;5054956;28;20029;-48
2022/01/17 07:40:43;;;;;;;20.83;8.00;;;6.50;99.90;;;;;;5072949;28;20051;-47
2022/01/17 07:43:10;;;;;;;17.02;8.02;;;6.50;99.90;;;;;;5072848;28;20483;-50
2022/01/17 07:45:37;;;;;;;23.33;8.90;;;6.50;99.90;;;;;;5054747;28;20024;-50
2022/01/17 07:50:28;;;;;;;18.58;7.50;;;6.50;99.90;;;;;;5073052;28;20033;-46
2022/01/17 07:52:54;;;;;;;19.77;8.13;;;6.60;99.90;;;;;;5072838;28;20098;-46
2022/01/17 07:55:21;;;;;;;24.17;7.60;;;6.60;99.90;;;;;;5072742;28;20037;-46
2022/01/17 07:57:47;;;;;;;15.68;6.25;;;6.60;99.90;;;;;;5055372;28;20111;-48
2022/01/17 08:00:19;;;;;;;14.73;6.35;;;6.60;99.90;;;;;;5072898;28;20028;-46
2022/01/17 08:02:46;;;;;;;15.43;5.97;;;6.60;99.90;;;;;;5054832;28;20116;-47
2022/01/17 08:05:14;;;;;;;16.60;6.38;;;6.70;99.90;;;;;;5054746;28;20036;-45
2022/01/17 08:07:40;;;;;;;15.52;6.78;;;6.70;99.90;;;;;;5054676;28;20020;-46
2022/01/17 08:10:12;;;;;;;17.35;6.47;;;6.70;99.90;;;;;;5073585;28;20025;-51
2022/01/17 08:12:38;;;;;;;14.15;6.80;;;6.80;99.90;;;;;;5077124;28;20016;-47
2022/01/17 08:15:05;;;;;;;17.40;7.15;;;6.80;99.90;;;;;;5058395;28;20029;-46
2022/01/17 08:17:31;;;;;;;15.57;5.90;;;6.70;99.90;;;;;;5058398;28;20024;-47
2022/01/17 08:19:57;;;;;;;17.02;6.55;;;6.70;99.90;;;;;;5076259;28;20025;-47
2022/01/17 08:22:23;;;;;;;14.60;5.88;;;6.80;99.90;;;;;;5076297;28;20062;-49
2022/01/17 08:24:48;;;;;;;14.65;6.07;;;6.90;99.90;;;;;;5058257;28;20020;-46
2022/01/17 08:27:14;;;;;;;15.63;5.78;;;7.00;99.90;;;;;;5058535;28;20028;-46
2022/01/17 08:29:39;;;;;;;18.42;6.30;;;7.00;99.90;;;;;;5058096;28;20106;-46
2022/01/17 08:32:07;;;;;;;14.88;6.20;;;6.90;99.90;;;;;;5058235;28;20027;-47
2022/01/17 08:34:33;;;;;;;20.33;6.45;;;6.90;99.90;;;;;;5075950;28;20077;-46
2022/01/17 08:36:59;;;;;;;14.50;6.43;;;7.00;99.90;;;;;;5076304;28;20024;-48
2022/01/17 08:39:25;;;;;;;12.65;5.75;;;6.90;99.90;;;;;;5058317;28;20116;-46
2022/01/17 08:41:52;;;;;;;15.95;6.32;;;6.90;99.90;;;;;;5057822;28;20032;-46
2022/01/17 08:44:19;;;;;;;19.08;6.47;;;6.90;99.90;;;;;;5057807;28;20392;-48
2022/01/17 08:46:44;;;;;;;18.27;6.70;;;6.90;99.90;;;;;;5058242;28;20388;-47
2022/01/17 08:49:11;;;;;;;15.32;6.07;;;6.90;99.90;;;;;;5075706;28;20031;-46
2022/01/17 08:51:37;;;;;;;12.23;5.85;;;7.00;99.90;;;;;;5057509;28;20029;-46
2022/01/17 08:54:04;;;;;;;19.05;6.80;;;6.90;99.90;;;;;;5057518;28;20084;-48
2022/01/17 08:56:30;;;;;;;17.77;6.95;;;6.90;99.90;;;;;;5057469;28;20033;-46
2022/01/17 08:58:57;;;;;;;13.95;6.68;;;7.10;99.90;;;;;;5075867;28;20020;-46
2022/01/17 09:01:23;;;;;;;12.55;6.00;;;7.20;99.90;;;;;;5075579;28;20206;-49
2022/01/17 09:03:59;;;;;;;10.90;5.15;;;7.30;99.90;;;;;;5075478;28;20095;-48
2022/01/17 09:06:26;;;;;;;13.80;6.43;;;7.30;99.90;;;;;;5057389;28;20021;-45
2022/01/17 09:08:51;;;;;;;19.08;8.05;;;7.30;99.90;;;;;;5075361;28;20091;-50
2022/01/17 09:11:18;;;;;;;15.98;6.95;;;7.40;99.90;;;;;;5075190;28;20056;-47
2022/01/17 09:13:43;;;;;;;16.00;7.28;;;7.40;99.90;;;;;;5075277;28;20020;-47
2022/01/17 09:16:09;;;;;;;18.80;6.70;;;7.40;99.90;;;;;;5057360;28;20031;-48
2022/01/17 09:18:36;;;;;;;22.60;7.63;;;7.40;99.90;;;;;;5057224;28;20035;-49
2022/01/17 09:21:02;;;;;;;11.95;5.47;;;7.40;99.90;;;;;;5074952;28;20086;-47
2022/01/17 09:23:27;;;;;;;16.95;6.20;;;7.40;99.90;;;;;;5056796;28;20020;-47
2022/01/17 09:25:53;;;;;;;19.67;7.20;;;7.40;99.90;;;;;;5057328;28;20035;-46
2022/01/17 09:28:19;;;;;;;14.75;6.05;;;7.30;99.90;;;;;;5056962;28;20021;-45
2022/01/17 09:30:45;;;;;;;19.23;6.55;;;7.30;99.90;;;;;;5057750;28;20070;-45
2022/01/17 09:33:11;;;;;;;15.85;6.47;;;7.20;99.90;;;;;;5074888;28;20013;-46
2022/01/17 09:35:37;;;;;;;12.13;6.28;;;7.20;99.90;;;;;;5074806;28;20021;-47
2022/01/17 09:38:04;;;;;;;14.90;6.68;;;7.20;99.90;;;;;;5056859;28;20024;-48
2022/01/17 09:40:30;;;;;;;16.63;7.25;;;7.20;99.90;;;;;;5074611;28;20029;-46
2022/01/17 09:42:58;;;;;;;12.57;6.03;;;7.20;99.90;;;;;;5074951;28;20025;-46
2022/01/17 09:45:24;;;;;;;17.23;7.65;;;7.10;99.90;;;;;;5074566;28;20055;-47
2022/01/17 09:47:51;;;;;;;16.65;7.03;;;7.20;99.90;;;;;;5074467;28;20022;-47
2022/01/17 09:50:21;;;;;;;16.05;7.80;;;7.20;99.90;;;;;;5056610;28;20035;-49
2022/01/17 09:52:52;;;;;;;20.77;7.35;;;7.10;99.90;;;;;;5056543;28;20109;-49
2022/01/17 09:55:25;;;;;;;14.45;7.90;;;7.10;99.90;;;;;;5056590;28;20109;-46
2022/01/17 09:58:08;;;;;;;17.83;6.78;;;7.10;99.90;;;;;;5056520;28;20032;-46
2022/01/17 10:00:43;;;;;;;20.92;8.02;;;7.10;99.90;;;;;;5056318;28;20166;-46
2022/01/17 10:03:13;;;;;;;17.35;6.93;;;7.20;99.90;;;;;;5074228;28;20103;-48
2022/01/17 10:05:39;;;;;;;18.25;7.40;;;7.20;99.90;;;;;;5056186;28;20024;-45
2022/01/17 10:08:08;;;;;;;19.48;7.47;;;7.20;99.90;;;;;;5056804;28;20063;-46
2022/01/17 10:10:44;;;;;;;17.92;6.90;;;7.20;99.90;;;;;;5056195;28;20024;-46
2022/01/17 10:13:11;;;;;;;14.38;6.40;;;7.30;99.90;;;;;;5074542;28;20024;-45
2022/01/17 10:15:46;;;;;;;18.63;7.18;;;7.30;99.90;;;;;;5056130;28;20087;-46
2022/01/17 10:18:24;;;;;;;17.15;7.22;;;7.40;99.90;;;;;;5074075;28;20017;-48
2022/01/17 10:20:55;;;;;;;15.73;7.10;;;7.50;99.90;;;;;;5073849;28;20499;-46
2022/01/17 10:23:41;;;;;;;17.88;7.10;;;7.50;99.90;;;;;;5074168;28;20388;-46
2022/01/17 10:35:19;;;;;;;14.93;7.03;;;7.70;99.90;;;;;;5074030;28;20534;-47
2022/01/17 10:37:59;;;;;;;15.07;6.85;;;7.80;99.90;;;;;;5073646;28;20369;-46
2022/01/17 10:40:27;;;;;;;17.05;6.43;;;7.90;99.90;;;;;;5055623;28;20020;-46
2022/01/17 10:42:55;;;;;;;17.38;7.00;;;7.90;99.90;;;;;;5073757;28;20025;-46
2022/01/17 10:45:30;;;;;;;18.20;6.78;;;8.00;99.90;;;;;;5055478;28;20082;-46
2022/01/17 10:47:58;;;;;;;16.48;6.95;;;8.10;99.90;;;;;;5056439;28;20020;-46
2022/01/17 10:50:31;;;;;;;18.13;7.25;;;8.10;99.90;;;;;;5055413;28;20062;-46
2022/01/17 10:53:05;;;;;;;17.23;6.13;;;8.10;99.90;;;;;;5073481;28;20020;-46
2022/01/17 10:55:40;;;;;;;14.18;6.95;;;8.10;99.90;;;;;;5073442;28;20115;-46
2022/01/17 10:58:11;;;;;;;12.85;6.05;;;8.10;99.90;;;;;;5055392;28;20020;-46
2022/01/17 11:00:39;;;;;;;18.27;7.10;;;8.10;99.90;;;;;;5073184;28;20043;-47
2022/01/17 11:03:11;;;;;;;13.98;6.22;;;8.00;99.90;;;;;;5073667;28;20576;-46
2022/01/17 11:05:39;;;;;;;14.02;5.90;;;8.10;99.90;;;;;;5055268;28;20025;-46
2022/01/17 11:08:05;;;;;;;13.77;6.28;;;8.00;99.90;;;;;;5055975;28;20024;-49
2022/01/17 11:10:43;;;;;;;16.25;5.88;;;8.00;99.90;;;;;;5055811;28;20028;-46
2022/01/17 11:13:11;;;;;;;17.80;6.05;;;8.00;99.90;;;;;;5056022;28;20021;-48
2022/01/17 11:15:39;;;;;;;16.50;6.70;;;8.00;99.90;;;;;;5073140;28;20024;-48
2022/01/17 11:18:16;;;;;;;20.00;7.22;;;8.00;99.90;;;;;;5055155;28;20020;-53
2022/01/17 11:20:42;;;;;;;13.85;6.20;;;7.90;99.90;;;;;;5072999;28;20036;-50
2022/01/17 11:23:08;;;;;;;12.88;6.60;;;8.00;99.90;;;;;;5073102;28;20021;-48
2022/01/17 11:25:36;;;;;;;17.77;6.00;;;8.00;99.90;;;;;;5055055;28;20032;-49
2022/01/17 11:28:05;;;;;;;15.88;7.25;;;8.00;99.90;;;;;;5055066;28;20021;-47
2022/01/17 11:30:34;;;;;;;20.60;6.55;;;8.00;99.90;;;;;;5073292;28;20392;-45
2022/01/17 11:33:06;;;;;;;17.63;7.22;;;8.10;99.90;;;;;;5055046;28;20017;-47
2022/01/17 11:35:37;;;;;;;16.48;7.40;;;8.10;99.90;;;;;;5054980;28;20028;-46
2022/01/17 11:38:05;;;;;;;12.90;6.20;;;8.10;99.90;;;;;;5072938;28;20030;-46
2022/01/17 11:40:39;;;;;;;18.27;7.20;;;8.20;99.90;;;;;;5073230;28;20028;-47
2022/01/17 11:43:32;;;;;;;15.35;6.50;;;8.10;99.90;;;;;;5072939;28;20107;-46
2022/01/17 11:46:00;;;;;;;16.40;7.32;;;8.20;99.90;;;;;;5075456;28;20087;-47
2022/01/17 11:48:28;;;;;;;14.63;6.82;;;8.20;99.90;;;;;;5059371;28;20016;-47
2022/01/17 11:50:57;;;;;;;18.42;9.00;;;8.30;99.90;;;;;;5058462;28;20127;-45
2022/01/17 11:53:23;;;;;;;20.23;8.07;;;8.30;99.90;;;;;;5059636;28;20028;-49
2022/01/17 11:55:50;;;;;;;17.73;8.32;;;8.30;99.90;;;;;;5058791;28;20028;-45
2022/01/17 11:58:24;;;;;;;14.50;6.72;;;8.30;99.90;;;;;;5058725;28;20123;-47
2022/01/17 12:01:09;;;;;;;20.77;7.68;;;8.30;99.90;;;;;;5059488;28;20047;-46
2022/01/17 12:03:40;;;;;;;17.42;7.15;;;8.30;99.90;;;;;;5059047;28;20115;-49
2022/01/17 12:06:27;;;;;;;16.98;7.78;;;8.20;99.90;;;;;;5076803;28;20021;-47
2022/01/17 12:09:19;;;;;;;15.35;7.60;;;8.20;99.90;;;;;;5076520;28;20070;-47
2022/01/17 12:11:44;;;;;;;19.85;8.05;;;8.20;99.90;;;;;;5058478;28;20024;-47
2022/01/17 12:14:29;;;;;;;17.20;8.10;;;8.20;99.90;;;;;;5058803;28;20024;-48
2022/01/17 12:17:25;;;;;;;19.55;8.60;;;8.10;99.90;;;;;;5058477;28;20109;-47
2022/01/17 12:20:07;;;;;;;15.70;8.25;;;8.20;99.90;;;;;;5076122;28;20023;-47
2022/01/17 12:22:56;;;;;;;19.10;9.25;;;8.20;99.90;;;;;;5058612;28;20025;-48
2022/01/17 12:25:22;;;;;;;20.25;8.68;;;8.20;99.90;;;;;;5058302;28;20101;-47
2022/01/17 12:27:49;;;;;;;19.65;9.90;;;8.20;99.90;;;;;;5076339;28;20110;-47
2022/01/17 12:30:15;;;;;;;19.23;8.63;;;8.20;99.90;;;;;;5058019;28;20036;-51
2022/01/17 12:32:45;;;;;;;21.45;8.85;;;8.20;99.90;;;;;;5058304;28;20077;-51
2022/01/17 12:35:15;;;;;;;21.02;9.95;;;8.20;99.90;;;;;;5058382;28;20032;-48
2022/01/17 12:37:51;;;;;;;22.75;9.65;;;8.20;99.90;;;;;;5076553;28;20028;-49
2022/01/17 12:40:22;;;;;;;16.90;8.68;;;8.30;99.90;;;;;;5075776;28;20065;-52
2022/01/17 12:43:07;;;;;;;23.35;9.57;;;8.20;99.90;;;;;;5075943;28;20025;-47
2022/01/17 12:45:33;;;;;;;21.45;10.20;;;8.30;99.90;;;;;;5075692;28;20032;-55
2022/01/17 12:48:02;;;;;;;18.02;9.40;;;8.30;99.90;;;;;;5076067;28;20016;-53
2022/01/17 12:50:29;;;;;;;20.25;9.75;;;8.40;99.90;;;;;;5057691;28;20036;-53
2022/01/17 12:52:57;;;;;;;19.55;10.10;;;8.30;99.90;;;;;;5075889;28;20016;-50
2022/01/17 12:55:26;;;;;;;20.17;10.02;;;8.40;99.90;;;;;;5075586;28;20048;-49
2022/01/17 12:57:52;;;;;;;20.88;9.70;;;8.40;99.90;;;;;;5056544;28;20039;-47
2022/01/17 13:00:22;;;;;;;19.63;9.50;;;8.40;99.90;;;;;;5057755;28;20047;-46
2022/01/17 13:02:52;;;;;;;20.60;9.18;;;8.50;99.90;;;;;;5058332;28;20039;-49
2022/01/17 13:05:23;;;;;;;20.17;9.10;;;8.50;99.90;;;;;;5075328;28;20016;-46
2022/01/17 13:07:50;;;;;;;20.95;8.63;;;8.50;99.90;;;;;;5057791;28;20024;-48
2022/01/17 13:10:17;;;;;;;18.00;8.27;;;8.50;99.90;;;;;;5057267;28;20028;-47
2022/01/17 13:12:42;;;;;;;20.77;8.60;;;8.50;99.90;;;;;;5075537;28;20025;-46
2022/01/17 13:15:11;;;;;;;15.35;8.15;;;8.50;99.90;;;;;;5057780;28;20020;-46
2022/01/17 13:17:38;;;;;;;18.77;8.65;;;8.50;99.90;;;;;;5075382;28;20025;-45